sensor_id;sensor_type;location;lat;lon;timestamp;pressure;altitude;pressure_sealevel;temperature;humidity
75640;BME280;64233;51.486;6.332;2022-12-10T00:01:17;100483.63;;;-3.71;100.00
75640;BME280;64233;51.486;6.332;2022-12-10T00:03:43;100489.22;;;-3.66;100.00
75640;BME280;64233;51.486;6.332;2022-12-10T00:06:15;100489.34;;;-3.67;100.00
75640;BME280;64233;51.486;6.332;2022-12-10T00:08:50;100487.56;;;-3.67;100.00
75640;BME280;64233;51.486;6.332;2022-12-10T00:11:17;100484.31;;;-3.77;100.00
75640;BME280;64233;51.486;6.332;2022-12-10T00:13:43;100498.38;;;-3.94;100.00
75640;BME280;64233;51.486;6.332;2022-12-10T00:16:11;100487.88;;;-4.11;100.00
75640;BME280;64233;51.486;6.332;2022-12-10T00:18:37;100480.81;;;-4.19;100.00
75640;BME280;64233;51.486;6.332;2022-12-10T00:21:08;100481.47;;;-4.17;100.00
75640;BME280;64233;51.486;6.332;2022-12-10T00:23:34;100490.16;;;-4.08;100.00
75640;BME280;64233;51.486;6.332;2022-12-10T00:26:09;100500.16;;;-4.03;100.00
75640;BME280;64233;51.486;6.332;2022-12-10T00:28:35;100495.91;;;-3.96;100.00
75640;BME280;64233;51.486;6.332;2022-12-10T00:31:08;100502.28;;;-3.99;100.00
75640;BME280;64233;51.486;6.332;2022-12-10T00:33:35;100497.38;;;-4.02;100.00
75640;BME280;64233;51.486;6.332;2022-12-10T00:36:03;100506.91;;;-4.01;100.00
75640;BME280;64233;51.486;6.332;2022-12-10T00:38:29;100509.34;;;-4.07;100.00
75640;BME280;64233;51.486;6.332;2022-12-10T00:40:54;100508.34;;;-4.06;100.00
75640;BME280;64233;51.486;6.332;2022-12-10T00:43:19;100510.00;;;-4.05;100.00
75640;BME280;64233;51.486;6.332;2022-12-10T00:45:44;100511.47;;;-4.03;100.00
75640;BME280;64233;51.486;6.332;2022-12-10T00:48:09;100505.44;;;-3.95;100.00
75640;BME280;64233;51.486;6.332;2022-12-10T00:50:35;100505.75;;;-3.98;100.00
75640;BME280;64233;51.486;6.332;2022-12-10T00:53:00;100506.72;;;-3.99;100.00
75640;BME280;64233;51.486;6.332;2022-12-10T00:55:26;100507.56;;;-4.07;100.00
75640;BME280;64233;51.486;6.332;2022-12-10T00:57:51;100503.47;;;-4.01;100.00
75640;BME280;64233;51.486;6.332;2022-12-10T01:00:16;100509.69;;;-4.02;100.00
75640;BME280;64233;51.486;6.332;2022-12-10T01:02:42;100509.47;;;-4.17;100.00
75640;BME280;64233;51.486;6.332;2022-12-10T01:05:07;100509.13;;;-4.30;100.00
75640;BME280;64233;51.486;6.332;2022-12-10T01:07:32;100500.09;;;-4.36;100.00
75640;BME280;64233;51.486;6.332;2022-12-10T01:09:58;100512.25;;;-4.35;100.00
75640;BME280;64233;51.486;6.332;2022-12-10T01:12:23;100505.66;;;-4.39;100.00
75640;BME280;64233;51.486;6.332;2022-12-10T01:14:48;100509.25;;;-4.40;100.00
75640;BME280;64233;51.486;6.332;2022-12-10T01:17:14;100507.63;;;-4.41;100.00
75640;BME280;64233;51.486;6.332;2022-12-10T01:19:39;100512.03;;;-4.42;100.00
75640;BME280;64233;51.486;6.332;2022-12-10T01:22:04;100517.28;;;-4.42;100.00
75640;BME280;64233;51.486;6.332;2022-12-10T01:24:30;100512.53;;;-4.38;100.00
75640;BME280;64233;51.486;6.332;2022-12-10T01:26:56;100521.41;;;-4.31;100.00
75640;BME280;64233;51.486;6.332;2022-12-10T01:29:22;100517.16;;;-4.32;100.00
75640;BME280;64233;51.486;6.332;2022-12-10T01:31:51;100522.56;;;-4.34;100.00
75640;BME280;64233;51.486;6.332;2022-12-10T01:34:17;100525.81;;;-4.32;100.00
75640;BME280;64233;51.486;6.332;2022-12-10T01:36:44;100526.50;;;-4.29;100.00
75640;BME280;64233;51.486;6.332;2022-12-10T01:39:13;100523.66;;;-4.44;100.00
75640;BME280;64233;51.486;6.332;2022-12-10T01:41:48;100529.72;;;-4.44;100.00
75640;BME280;64233;51.486;6.332;2022-12-10T01:46:44;100537.00;;;-4.29;100.00
75640;BME280;64233;51.486;6.332;2022-12-10T01:49:22;100543.53;;;-4.25;100.00
75640;BME280;64233;51.486;6.332;2022-12-10T01:51:50;100542.97;;;-4.45;100.00
75640;BME280;64233;51.486;6.332;2022-12-10T01:54:20;100548.94;;;-4.70;100.00
75640;BME280;64233;51.486;6.332;2022-12-10T01:56:49;100549.25;;;-4.73;100.00
75640;BME280;64233;51.486;6.332;2022-12-10T01:59:15;100551.22;;;-4.67;100.00
75640;BME280;64233;51.486;6.332;2022-12-10T02:01:47;100544.09;;;-4.56;100.00
75640;BME280;64233;51.486;6.332;2022-12-10T02:04:27;100548.34;;;-4.55;100.00
75640;BME280;64233;51.486;6.332;2022-12-10T02:07:13;100548.81;;;-4.60;100.00
75640;BME280;64233;51.486;6.332;2022-12-10T02:09:50;100551.75;;;-4.63;100.00
75640;BME280;64233;51.486;6.332;2022-12-10T02:12:34;100548.31;;;-4.63;100.00
75640;BME280;64233;51.486;6.332;2022-12-10T02:15:12;100550.78;;;-4.54;100.00
75640;BME280;64233;51.486;6.332;2022-12-10T02:20:08;100552.94;;;-4.57;100.00
75640;BME280;64233;51.486;6.332;2022-12-10T02:23:10;100550.47;;;-4.59;100.00
75640;BME280;64233;51.486;6.332;2022-12-10T02:25:51;100543.41;;;-4.58;100.00
75640;BME280;64233;51.486;6.332;2022-12-10T02:28:47;100542.28;;;-4.56;100.00
75640;BME280;64233;51.486;6.332;2022-12-10T02:31:18;100550.94;;;-4.55;100.00
75640;BME280;64233;51.486;6.332;2022-12-10T02:33:50;100542.28;;;-4.56;100.00
75640;BME280;64233;51.486;6.332;2022-12-10T02:36:18;100543.34;;;-4.75;100.00
75640;BME280;64233;51.486;6.332;2022-12-10T02:38:47;100546.63;;;-4.73;100.00
75640;BME280;64233;51.486;6.332;2022-12-10T02:41:18;100531.78;;;-4.98;100.00
75640;BME280;64233;51.486;6.332;2022-12-10T02:43:46;100532.84;;;-5.09;100.00
75640;BME280;64233;51.486;6.332;2022-12-10T02:46:13;100537.84;;;-5.16;100.00
75640;BME280;64233;51.486;6.332;2022-12-10T02:48:39;100540.91;;;-5.03;100.00
75640;BME280;64233;51.486;6.332;2022-12-10T02:51:05;100543.63;;;-4.86;100.00
75640;BME280;64233;51.486;6.332;2022-12-10T02:53:30;100541.72;;;-4.76;100.00
75640;BME280;64233;51.486;6.332;2022-12-10T02:56:14;100545.03;;;-4.65;100.00
75640;BME280;64233;51.486;6.332;2022-12-10T03:03:59;100546.44;;;-5.06;100.00
75640;BME280;64233;51.486;6.332;2022-12-10T03:06:39;100547.88;;;-5.11;100.00
75640;BME280;64233;51.486;6.332;2022-12-10T03:09:13;100549.88;;;-5.05;100.00
75640;BME280;64233;51.486;6.332;2022-12-10T03:11:43;100548.03;;;-5.13;100.00
75640;BME280;64233;51.486;6.332;2022-12-10T03:14:16;100548.31;;;-5.16;100.00
75640;BME280;64233;51.486;6.332;2022-12-10T03:16:53;100547.41;;;-5.07;100.00
75640;BME280;64233;51.486;6.332;2022-12-10T03:19:22;100538.50;;;-4.96;100.00
75640;BME280;64233;51.486;6.332;2022-12-10T03:21:49;100552.09;;;-4.92;100.00
75640;BME280;64233;51.486;6.332;2022-12-10T03:24:16;100544.00;;;-4.99;100.00
75640;BME280;64233;51.486;6.332;2022-12-10T03:26:44;100547.72;;;-5.10;100.00
75640;BME280;64233;51.486;6.332;2022-12-10T03:29:26;100543.63;;;-5.12;100.00
75640;BME280;64233;51.486;6.332;2022-12-10T03:31:53;100541.97;;;-5.13;100.00
75640;BME280;64233;51.486;6.332;2022-12-10T03:34:19;100537.91;;;-5.08;100.00
75640;BME280;64233;51.486;6.332;2022-12-10T03:36:45;100550.56;;;-5.03;100.00
75640;BME280;64233;51.486;6.332;2022-12-10T03:39:11;100538.34;;;-4.94;100.00
75640;BME280;64233;51.486;6.332;2022-12-10T03:41:37;100549.00;;;-4.88;100.00
75640;BME280;64233;51.486;6.332;2022-12-10T03:44:03;100555.41;;;-4.82;100.00
75640;BME280;64233;51.486;6.332;2022-12-10T03:46:29;100551.47;;;-4.86;100.00
75640;BME280;64233;51.486;6.332;2022-12-10T03:48:56;100552.78;;;-4.82;100.00
75640;BME280;64233;51.486;6.332;2022-12-10T03:51:22;100559.03;;;-4.83;100.00
75640;BME280;64233;51.486;6.332;2022-12-10T03:53:47;100549.94;;;-4.97;100.00
75640;BME280;64233;51.486;6.332;2022-12-10T03:56:16;100545.81;;;-4.99;100.00
75640;BME280;64233;51.486;6.332;2022-12-10T03:58:42;100554.03;;;-4.94;100.00
75640;BME280;64233;51.486;6.332;2022-12-10T04:01:08;100551.94;;;-4.91;100.00
75640;BME280;64233;51.486;6.332;2022-12-10T04:03:37;100559.78;;;-4.91;100.00
75640;BME280;64233;51.486;6.332;2022-12-10T04:06:05;100556.94;;;-5.06;100.00
75640;BME280;64233;51.486;6.332;2022-12-10T04:08:31;100556.81;;;-4.96;100.00
75640;BME280;64233;51.486;6.332;2022-12-10T04:11:02;100554.09;;;-4.86;100.00
75640;BME280;64233;51.486;6.332;2022-12-10T04:13:36;100563.00;;;-4.71;100.00
75640;BME280;64233;51.486;6.332;2022-12-10T04:16:27;100565.06;;;-4.56;100.00
75640;BME280;64233;51.486;6.332;2022-12-10T04:18:58;100574.91;;;-4.50;100.00
75640;BME280;64233;51.486;6.332;2022-12-10T04:21:25;100569.00;;;-4.52;100.00
75640;BME280;64233;51.486;6.332;2022-12-10T04:24:10;100571.91;;;-4.55;100.00
75640;BME280;64233;51.486;6.332;2022-12-10T04:26:56;100569.94;;;-4.61;100.00
75640;BME280;64233;51.486;6.332;2022-12-10T04:29:25;100567.31;;;-4.61;100.00
75640;BME280;64233;51.486;6.332;2022-12-10T04:31:51;100573.38;;;-4.61;100.00
75640;BME280;64233;51.486;6.332;2022-12-10T04:34:16;100563.56;;;-4.59;100.00
75640;BME280;64233;51.486;6.332;2022-12-10T04:36:42;100567.66;;;-4.56;100.00
75640;BME280;64233;51.486;6.332;2022-12-10T04:39:07;100560.47;;;-4.54;100.00
75640;BME280;64233;51.486;6.332;2022-12-10T04:41:32;100566.84;;;-4.57;100.00
75640;BME280;64233;51.486;6.332;2022-12-10T04:43:58;100558.53;;;-4.52;100.00
75640;BME280;64233;51.486;6.332;2022-12-10T04:46:23;100566.22;;;-4.51;100.00
75640;BME280;64233;51.486;6.332;2022-12-10T04:48:48;100557.06;;;-4.46;100.00
75640;BME280;64233;51.486;6.332;2022-12-10T04:51:14;100555.59;;;-4.49;100.00
75640;BME280;64233;51.486;6.332;2022-12-10T04:53:39;100571.47;;;-4.42;100.00
75640;BME280;64233;51.486;6.332;2022-12-10T04:56:05;100566.47;;;-4.27;100.00
75640;BME280;64233;51.486;6.332;2022-12-10T04:58:31;100565.00;;;-4.22;100.00
75640;BME280;64233;51.486;6.332;2022-12-10T05:01:04;100568.16;;;-4.18;100.00
75640;BME280;64233;51.486;6.332;2022-12-10T05:03:30;100568.00;;;-4.17;100.00
75640;BME280;64233;51.486;6.332;2022-12-10T05:05:55;100567.19;;;-4.09;100.00
75640;BME280;64233;51.486;6.332;2022-12-10T05:08:21;100560.97;;;-4.08;100.00
75640;BME280;64233;51.486;6.332;2022-12-10T05:10:46;100571.13;;;-4.05;100.00
75640;BME280;64233;51.486;6.332;2022-12-10T05:13:11;100570.47;;;-3.99;100.00
75640;BME280;64233;51.486;6.332;2022-12-10T05:15:39;100562.94;;;-4.02;100.00
75640;BME280;64233;51.486;6.332;2022-12-10T05:18:05;100570.66;;;-3.92;100.00
75640;BME280;64233;51.486;6.332;2022-12-10T05:20:30;100564.28;;;-3.89;100.00
75640;BME280;64233;51.486;6.332;2022-12-10T05:22:55;100571.47;;;-3.91;100.00
75640;BME280;64233;51.486;6.332;2022-12-10T05:25:39;100574.09;;;-3.91;100.00
75640;BME280;64233;51.486;6.332;2022-12-10T05:28:21;100565.41;;;-3.92;100.00
75640;BME280;64233;51.486;6.332;2022-12-10T05:30:46;100565.75;;;-3.95;100.00
75640;BME280;64233;51.486;6.332;2022-12-10T05:33:13;100570.84;;;-3.85;100.00
75640;BME280;64233;51.486;6.332;2022-12-10T05:35:39;100567.56;;;-3.79;100.00
75640;BME280;64233;51.486;6.332;2022-12-10T05:38:04;100575.59;;;-3.81;100.00
75640;BME280;64233;51.486;6.332;2022-12-10T05:40:33;100576.44;;;-3.72;100.00
75640;BME280;64233;51.486;6.332;2022-12-10T05:42:59;100573.31;;;-3.67;100.00
75640;BME280;64233;51.486;6.332;2022-12-10T05:45:24;100575.94;;;-3.59;100.00
75640;BME280;64233;51.486;6.332;2022-12-10T05:47:49;100582.50;;;-3.55;100.00
75640;BME280;64233;51.486;6.332;2022-12-10T05:50:15;100577.28;;;-3.55;100.00
75640;BME280;64233;51.486;6.332;2022-12-10T05:52:40;100580.22;;;-3.50;100.00
75640;BME280;64233;51.486;6.332;2022-12-10T05:55:05;100580.22;;;-3.50;100.00
75640;BME280;64233;51.486;6.332;2022-12-10T05:57:31;100585.50;;;-3.41;100.00
75640;BME280;64233;51.486;6.332;2022-12-10T05:59:56;100582.03;;;-3.42;100.00
75640;BME280;64233;51.486;6.332;2022-12-10T06:02:21;100584.16;;;-3.29;100.00
75640;BME280;64233;51.486;6.332;2022-12-10T06:04:46;100593.69;;;-3.28;100.00
75640;BME280;64233;51.486;6.332;2022-12-10T06:07:12;100592.19;;;-3.31;100.00
75640;BME280;64233;51.486;6.332;2022-12-10T06:09:37;100598.94;;;-3.28;100.00
75640;BME280;64233;51.486;6.332;2022-12-10T06:12:02;100596.16;;;-3.26;100.00
75640;BME280;64233;51.486;6.332;2022-12-10T06:14:28;100594.50;;;-3.19;100.00
75640;BME280;64233;51.486;6.332;2022-12-10T06:17:07;100593.69;;;-3.20;100.00
75640;BME280;64233;51.486;6.332;2022-12-10T06:19:32;100597.28;;;-3.21;100.00
75640;BME280;64233;51.486;6.332;2022-12-10T06:21:57;100601.91;;;-3.15;100.00
75640;BME280;64233;51.486;6.332;2022-12-10T06:24:23;100601.41;;;-3.18;100.00
75640;BME280;64233;51.486;6.332;2022-12-10T06:26:49;100598.78;;;-3.18;100.00
75640;BME280;64233;51.486;6.332;2022-12-10T06:29:14;100598.28;;;-3.22;100.00
75640;BME280;64233;51.486;6.332;2022-12-10T06:31:39;100602.72;;;-3.22;100.00
75640;BME280;64233;51.486;6.332;2022-12-10T06:34:05;100605.69;;;-3.17;100.00
75640;BME280;64233;51.486;6.332;2022-12-10T06:36:30;100601.22;;;-3.25;100.00
75640;BME280;64233;51.486;6.332;2022-12-10T06:38:56;100611.09;;;-3.27;100.00
75640;BME280;64233;51.486;6.332;2022-12-10T06:41:21;100606.13;;;-3.22;100.00
75640;BME280;64233;51.486;6.332;2022-12-10T06:43:47;100610.41;;;-3.21;100.00
75640;BME280;64233;51.486;6.332;2022-12-10T06:46:14;100615.03;;;-3.23;100.00
75640;BME280;64233;51.486;6.332;2022-12-10T06:48:41;100609.28;;;-3.18;100.00
75640;BME280;64233;51.486;6.332;2022-12-10T06:51:07;100615.16;;;-3.16;100.00
75640;BME280;64233;51.486;6.332;2022-12-10T06:53:34;100610.25;;;-3.19;100.00
75640;BME280;64233;51.486;6.332;2022-12-10T06:56:01;100618.97;;;-3.27;100.00
75640;BME280;64233;51.486;6.332;2022-12-10T06:58:27;100617.81;;;-3.33;100.00
75640;BME280;64233;51.486;6.332;2022-12-10T07:00:53;100616.84;;;-3.32;100.00
75640;BME280;64233;51.486;6.332;2022-12-10T07:03:18;100624.22;;;-3.27;100.00
75640;BME280;64233;51.486;6.332;2022-12-10T07:05:44;100620.09;;;-3.30;100.00
75640;BME280;64233;51.486;6.332;2022-12-10T07:08:09;100626.00;;;-3.28;100.00
75640;BME280;64233;51.486;6.332;2022-12-10T07:10:36;100627.47;;;-3.33;100.00
75640;BME280;64233;51.486;6.332;2022-12-10T07:13:01;100627.16;;;-3.22;100.00
75640;BME280;64233;51.486;6.332;2022-12-10T07:15:27;100622.91;;;-3.31;100.00
75640;BME280;64233;51.486;6.332;2022-12-10T07:17:53;100622.91;;;-3.31;100.00
75640;BME280;64233;51.486;6.332;2022-12-10T07:20:18;100632.25;;;-3.29;100.00
75640;BME280;64233;51.486;6.332;2022-12-10T07:22:44;100623.88;;;-3.32;100.00
75640;BME280;64233;51.486;6.332;2022-12-10T07:25:09;100629.28;;;-3.25;100.00
75640;BME280;64233;51.486;6.332;2022-12-10T07:27:34;100635.03;;;-3.22;100.00
75640;BME280;64233;51.486;6.332;2022-12-10T07:29:59;100633.06;;;-3.20;100.00
75640;BME280;64233;51.486;6.332;2022-12-10T07:32:26;100638.97;;;-3.18;100.00
75640;BME280;64233;51.486;6.332;2022-12-10T07:34:52;100638.81;;;-3.16;100.00
75640;BME280;64233;51.486;6.332;2022-12-10T07:37:17;100634.22;;;-3.14;100.00
75640;BME280;64233;51.486;6.332;2022-12-10T07:39:43;100636.50;;;-3.11;100.00
75640;BME280;64233;51.486;6.332;2022-12-10T07:42:08;100641.78;;;-3.11;100.00
75640;BME280;64233;51.486;6.332;2022-12-10T07:44:34;100642.56;;;-3.11;100.00
75640;BME280;64233;51.486;6.332;2022-12-10T07:46:59;100646.84;;;-3.01;100.00
75640;BME280;64233;51.486;6.332;2022-12-10T07:49:24;100651.31;;;-3.02;100.00
75640;BME280;64233;51.486;6.332;2022-12-10T07:51:50;100649.66;;;-3.11;100.00
75640;BME280;64233;51.486;6.332;2022-12-10T07:54:16;100650.31;;;-3.09;100.00
75640;BME280;64233;51.486;6.332;2022-12-10T07:56:42;100653.41;;;-3.05;100.00
75640;BME280;64233;51.486;6.332;2022-12-10T07:59:07;100658.19;;;-3.09;100.00
75640;BME280;64233;51.486;6.332;2022-12-10T08:01:32;100663.44;;;-3.09;100.00
75640;BME280;64233;51.486;6.332;2022-12-10T08:03:58;100664.72;;;-3.05;100.00
75640;BME280;64233;51.486;6.332;2022-12-10T08:06:25;100669.69;;;-3.10;100.00
75640;BME280;64233;51.486;6.332;2022-12-10T08:08:52;100665.75;;;-3.06;100.00
75640;BME280;64233;51.486;6.332;2022-12-10T08:11:19;100667.22;;;-3.03;100.00
75640;BME280;64233;51.486;6.332;2022-12-10T08:13:45;100666.38;;;-3.04;100.00
75640;BME280;64233;51.486;6.332;2022-12-10T08:16:13;100672.63;;;-3.05;100.00
75640;BME280;64233;51.486;6.332;2022-12-10T08:18:39;100680.19;;;-3.02;100.00
75640;BME280;64233;51.486;6.332;2022-12-10T08:21:06;100680.50;;;-3.05;100.00
75640;BME280;64233;51.486;6.332;2022-12-10T08:23:33;100676.91;;;-2.96;100.00
75640;BME280;64233;51.486;6.332;2022-12-10T08:25:58;100685.59;;;-2.87;100.00
75640;BME280;64233;51.486;6.332;2022-12-10T08:28:24;100673.13;;;-3.01;100.00
75640;BME280;64233;51.486;6.332;2022-12-10T08:30:49;100686.75;;;-3.06;100.00
75640;BME280;64233;51.486;6.332;2022-12-10T08:33:15;100682.31;;;-3.05;100.00
75640;BME280;64233;51.486;6.332;2022-12-10T08:35:40;100693.81;;;-2.98;100.00
75640;BME280;64233;51.486;6.332;2022-12-10T08:38:05;100689.22;;;-2.96;100.00
75640;BME280;64233;51.486;6.332;2022-12-10T08:40:31;100693.97;;;-2.91;100.00
75640;BME280;64233;51.486;6.332;2022-12-10T08:42:56;100700.88;;;-2.90;100.00
75640;BME280;64233;51.486;6.332;2022-12-10T08:45:21;100701.84;;;-3.00;100.00
75640;BME280;64233;51.486;6.332;2022-12-10T08:47:46;100711.53;;;-3.00;100.00
75640;BME280;64233;51.486;6.332;2022-12-10T08:50:12;100709.25;;;-3.03;100.00
75640;BME280;64233;51.486;6.332;2022-12-10T08:52:37;100713.03;;;-2.98;100.00
75640;BME280;64233;51.486;6.332;2022-12-10T08:55:03;100718.41;;;-2.99;100.00
75640;BME280;64233;51.486;6.332;2022-12-10T08:57:28;100728.28;;;-3.01;100.00
75640;BME280;64233;51.486;6.332;2022-12-10T08:59:53;100733.03;;;-3.05;100.00
75640;BME280;64233;51.486;6.332;2022-12-10T09:02:19;100732.72;;;-3.02;100.00
75640;BME280;64233;51.486;6.332;2022-12-10T09:04:44;100730.09;;;-3.02;100.00
75640;BME280;64233;51.486;6.332;2022-12-10T09:07:11;100733.03;;;-2.97;100.00
75640;BME280;64233;51.486;6.332;2022-12-10T09:09:36;100738.94;;;-3.03;100.00
75640;BME280;64233;51.486;6.332;2022-12-10T09:12:02;100739.28;;;-3.06;100.00
75640;BME280;64233;51.486;6.332;2022-12-10T09:14:27;100742.72;;;-3.05;100.00
75640;BME280;64233;51.486;6.332;2022-12-10T09:16:52;100748.94;;;-3.06;100.00
75640;BME280;64233;51.486;6.332;2022-12-10T09:19:18;100742.06;;;-2.99;100.00
75640;BME280;64233;51.486;6.332;2022-12-10T09:21:43;100746.16;;;-2.97;100.00
75640;BME280;64233;51.486;6.332;2022-12-10T09:24:08;100750.28;;;-2.94;100.00
75640;BME280;64233;51.486;6.332;2022-12-10T09:26:34;100751.09;;;-2.94;100.00
75640;BME280;64233;51.486;6.332;2022-12-10T09:28:59;100753.59;;;-2.92;100.00
75640;BME280;64233;51.486;6.332;2022-12-10T09:31:25;100758.34;;;-2.87;100.00
75640;BME280;64233;51.486;6.332;2022-12-10T09:33:52;100754.25;;;-2.82;100.00
75640;BME280;64233;51.486;6.332;2022-12-10T09:36:19;100759.66;;;-2.83;100.00
75640;BME280;64233;51.486;6.332;2022-12-10T09:38:45;100757.19;;;-2.85;100.00
75640;BME280;64233;51.486;6.332;2022-12-10T09:41:34;100764.25;;;-2.85;100.00
75640;BME280;64233;51.486;6.332;2022-12-10T09:46:55;100754.06;;;-2.88;100.00
75640;BME280;64233;51.486;6.332;2022-12-10T09:51:57;100753.56;;;-2.84;100.00
75640;BME280;64233;51.486;6.332;2022-12-10T09:54:31;100755.56;;;-2.78;100.00
75640;BME280;64233;51.486;6.332;2022-12-10T09:56:57;100757.34;;;-2.78;100.00
75640;BME280;64233;51.486;6.332;2022-12-10T09:59:30;100759.00;;;-2.77;100.00
75640;BME280;64233;51.486;6.332;2022-12-10T10:02:09;100752.75;;;-2.76;100.00
75640;BME280;64233;51.486;6.332;2022-12-10T10:04:36;100751.94;;;-2.77;100.00
75640;BME280;64233;51.486;6.332;2022-12-10T10:07:02;100747.00;;;-2.71;100.00
75640;BME280;64233;51.486;6.332;2022-12-10T10:09:29;100752.28;;;-2.71;100.00
75640;BME280;64233;51.486;6.332;2022-12-10T10:12:02;100751.75;;;-2.67;100.00
75640;BME280;64233;51.486;6.332;2022-12-10T10:14:34;100753.25;;;-2.64;100.00
75640;BME280;64233;51.486;6.332;2022-12-10T10:17:02;100754.22;;;-2.57;100.00
75640;BME280;64233;51.486;6.332;2022-12-10T10:19:31;100756.69;;;-2.55;100.00
75640;BME280;64233;51.486;6.332;2022-12-10T10:22:03;100758.69;;;-2.66;100.00
75640;BME280;64233;51.486;6.332;2022-12-10T10:24:35;100759.00;;;-2.61;100.00
75640;BME280;64233;51.486;6.332;2022-12-10T10:27:20;100753.41;;;-2.66;100.00
75640;BME280;64233;51.486;6.332;2022-12-10T10:29:48;100756.22;;;-2.67;100.00
75640;BME280;64233;51.486;6.332;2022-12-10T10:34:45;100745.88;;;-2.61;100.00
75640;BME280;64233;51.486;6.332;2022-12-10T10:37:38;100741.59;;;-2.62;100.00
75640;BME280;64233;51.486;6.332;2022-12-10T10:40:05;100747.19;;;-2.56;100.00
75640;BME280;64233;51.486;6.332;2022-12-10T10:42:40;100752.75;;;-2.51;100.00
75640;BME280;64233;51.486;6.332;2022-12-10T10:45:37;100749.31;;;-2.44;100.00
75640;BME280;64233;51.486;6.332;2022-12-10T10:50:46;100743.22;;;-2.44;100.00
75640;BME280;64233;51.486;6.332;2022-12-10T10:53:31;100744.69;;;-2.50;100.00
75640;BME280;64233;51.486;6.332;2022-12-10T10:56:18;100753.72;;;-2.44;100.00
75640;BME280;64233;51.486;6.332;2022-12-10T10:59:04;100749.78;;;-2.48;100.00
75640;BME280;64233;51.486;6.332;2022-12-10T11:01:44;100744.88;;;-2.43;100.00
75640;BME280;64233;51.486;6.332;2022-12-10T11:04:10;100745.66;;;-2.43;100.00
75640;BME280;64233;51.486;6.332;2022-12-10T11:06:36;100745.84;;;-2.44;100.00
75640;BME280;64233;51.486;6.332;2022-12-10T11:09:01;100748.81;;;-2.39;100.00
75640;BME280;64233;51.486;6.332;2022-12-10T11:11:39;100742.56;;;-2.38;100.00
75640;BME280;64233;51.486;6.332;2022-12-10T11:14:14;100737.78;;;-2.43;100.00
75640;BME280;64233;51.486;6.332;2022-12-10T11:16:40;100735.81;;;-2.32;100.00
75640;BME280;64233;51.486;6.332;2022-12-10T11:19:18;100736.63;;;-2.32;100.00
75640;BME280;64233;51.486;6.332;2022-12-10T11:21:44;100736.13;;;-2.27;100.00
75640;BME280;64233;51.486;6.332;2022-12-10T11:24:11;100734.63;;;-2.21;100.00
75640;BME280;64233;51.486;6.332;2022-12-10T11:26:58;100728.72;;;-2.23;100.00
75640;BME280;64233;51.486;6.332;2022-12-10T11:29:51;100728.22;;;-2.19;100.00
75640;BME280;64233;51.486;6.332;2022-12-10T11:35:21;100734.00;;;-2.23;100.00
75640;BME280;64233;51.486;6.332;2022-12-10T11:40:58;100728.69;;;-2.07;100.00
75640;BME280;64233;51.486;6.332;2022-12-10T11:43:42;100731.47;;;-2.09;100.00
75640;BME280;64233;51.486;6.332;2022-12-10T11:46:53;100740.19;;;-2.00;100.00
75640;BME280;64233;51.486;6.332;2022-12-10T11:49:28;100738.22;;;-2.06;100.00
75640;BME280;64233;51.486;6.332;2022-12-10T11:52:16;100739.88;;;-2.05;100.00
75640;BME280;64233;51.486;6.332;2022-12-10T11:54:58;100733.44;;;-2.02;100.00
75640;BME280;64233;51.486;6.332;2022-12-10T11:57:33;100734.44;;;-2.03;100.00
75640;BME280;64233;51.486;6.332;2022-12-10T12:00:14;100735.06;;;-2.01;100.00
75640;BME280;64233;51.486;6.332;2022-12-10T12:03:06;100738.69;;;-1.94;100.00
75640;BME280;64233;51.486;6.332;2022-12-10T12:16:50;100728.44;;;-1.81;100.00
75640;BME280;64233;51.486;6.332;2022-12-10T12:19:27;100731.06;;;-1.81;100.00
75640;BME280;64233;51.486;6.332;2022-12-10T12:21:54;100734.84;;;-1.75;100.00
75640;BME280;64233;51.486;6.332;2022-12-10T12:24:36;100731.69;;;-1.70;100.00
75640;BME280;64233;51.486;6.332;2022-12-10T12:27:30;100733.81;;;-1.66;100.00
75640;BME280;64233;51.486;6.332;2022-12-10T12:30:15;100723.78;;;-1.70;100.00
75640;BME280;64233;51.486;6.332;2022-12-10T12:35:46;100720.31;;;-1.63;100.00
75640;BME280;64233;51.486;6.332;2022-12-10T12:41:03;100726.34;;;-1.54;100.00
75640;BME280;64233;51.486;6.332;2022-12-10T12:46:01;100729.69;;;-1.60;100.00
75640;BME280;64233;51.486;6.332;2022-12-10T12:48:53;100731.13;;;-1.58;100.00
75640;BME280;64233;51.486;6.332;2022-12-10T12:54:40;100732.44;;;-1.53;100.00
75640;BME280;64233;51.486;6.332;2022-12-10T12:57:18;100729.75;;;-1.45;100.00
75640;BME280;64233;51.486;6.332;2022-12-10T12:59:56;100734.50;;;-1.41;100.00
75640;BME280;64233;51.486;6.332;2022-12-10T13:05:23;100734.72;;;-1.50;100.00
75640;BME280;64233;51.486;6.332;2022-12-10T13:11:14;100728.63;;;-1.51;100.00
75640;BME280;64233;51.486;6.332;2022-12-10T13:16:49;100739.97;;;-1.50;100.00
75640;BME280;64233;51.486;6.332;2022-12-10T13:22:09;100744.09;;;-1.48;100.00
75640;BME280;64233;51.486;6.332;2022-12-10T13:29:54;100747.56;;;-1.47;100.00
75640;BME280;64233;51.486;6.332;2022-12-10T13:37:38;100755.13;;;-1.52;100.00
75640;BME280;64233;51.486;6.332;2022-12-10T13:43:20;100758.94;;;-1.55;100.00
75640;BME280;64233;51.486;6.332;2022-12-10T13:46:25;100766.66;;;-1.53;100.00
75640;BME280;64233;51.486;6.332;2022-12-10T13:48:54;100769.63;;;-1.57;100.00
75640;BME280;64233;51.486;6.332;2022-12-10T13:54:36;100771.81;;;-1.60;100.00
75640;BME280;64233;51.486;6.332;2022-12-10T13:59:45;100773.78;;;-1.62;100.00
75640;BME280;64233;51.486;6.332;2022-12-10T14:02:28;100775.41;;;-1.61;100.00
75640;BME280;64233;51.486;6.332;2022-12-10T14:07:48;100776.06;;;-1.59;100.00
75640;BME280;64233;51.486;6.332;2022-12-10T14:10:16;100775.94;;;-1.66;100.00
75640;BME280;64233;51.486;6.332;2022-12-10T14:12:45;100778.06;;;-1.69;100.00
75640;BME280;64233;51.486;6.332;2022-12-10T14:15:23;100772.31;;;-1.73;100.00
75640;BME280;64233;51.486;6.332;2022-12-10T14:17:50;100773.78;;;-1.70;100.00